Ince Beylerbeyi — TCSK2 — position and weather

sailwx.info

Track history (hours):
 
Tides and Currents Weather Stations Pressure Air Temp Water Temp Dewpoint Dewpoint Depression Visibility Wind Speed Wind Dir Waves Ship Positions

Ince Beylerbeyi

Last reported at 2017-Dec-15 13:12 UTC. Time now 2017-Dec-15 16:06 UTC.
Position N 40°44' E 029°28'.

Length 199 m; draft 12 m.

Type: Cargo ship. MMSI: 271042993.

Date/timePositionNaut miles runAvg speedWind from/ knotsBaromVisibWave heightAir tempDewpointWater temp
2017-Dec-15 13:12N 40°44' E 029°28'211.2
2017-Dec-15 12:58N 40°44' E 029°24'510.4
2017-Dec-15 12:30N 40°44' E 029°18'510.9
2017-Dec-15 12:00N 40°45' E 029°11'611.4
2017-Dec-15 11:30N 40°47' E 029°04'611.0
2017-Dec-15 11:00N 40°51' E 028°58'510.1
2017-Dec-15 10:29N 40°56' E 028°57'339 8.7
2017-Dec-13 19:17N 46°24' E 030°55'311.3
2017-Dec-13 19:00N 46°27' E 030°55'12 4.0
2017-Dec-13 16:05N 46°34' E 031°09'0 0.0
2017-Dec-13 15:58N 46°34' E 031°09'0 0.0
2017-Dec-13 15:20N 46°34' E 031°09'0 0.1
2017-Dec-13 14:59N 46°34' E 031°09'0 0.0
2017-Dec-13 14:29N 46°34' E 031°09'0 0.0
2017-Dec-13 12:16N 46°34' E 031°09'0 0.0
2017-Dec-13 11:56N 46°34' E 031°09'0 0.0
2017-Dec-13 11:29N 46°34' E 031°09'0 0.0
2017-Dec-13 10:58N 46°34' E 031°09'0 0.0
2017-Dec-13 10:28N 46°34' E 031°09'0 0.0
2017-Dec-13 09:43N 46°34' E 031°09'0 0.0
2017-Dec-13 09:20N 46°34' E 031°09'0 0.0
2017-Dec-13 08:59N 46°34' E 031°09'0 0.0
2017-Dec-13 07:56N 46°34' E 031°09'0 0.0
2017-Dec-13 07:17N 46°34' E 031°09'0 0.0
2017-Dec-13 06:49N 46°34' E 031°09'0 0.0
2017-Dec-13 06:19N 46°34' E 031°09'0 0.0
2017-Dec-13 05:58N 46°34' E 031°09'0 0.0
2017-Dec-13 04:43N 46°34' E 031°09'0 0.0
2017-Dec-13 04:28N 46°34' E 031°09'0 0.0
2017-Dec-13 03:56N 46°34' E 031°09'0 0.0
2017-Dec-13 01:14N 46°34' E 031°09'0 0.0
2017-Dec-13 00:58N 46°34' E 031°09'0 0.0
2017-Dec-13 00:28N 46°34' E 031°09'0 0.1
2017-Dec-12 23:55N 46°34' E 031°09'0 0.0
2017-Dec-12 22:28N 46°34' E 031°09'0 0.0
2017-Dec-12 20:55N 46°34' E 031°09'0 0.0
2017-Dec-12 15:10N 46°34' E 031°09'0 0.0
2017-Dec-12 14:58N 46°34' E 031°09'0 0.0
2017-Dec-12 13:38N 46°34' E 031°09'0 0.1
2017-Dec-12 13:19N 46°34' E 031°09'0 0.0
2017-Dec-12 11:58N 46°34' E 031°09'0 0.0
2017-Dec-12 11:28N 46°34' E 031°09'0 0.0
2017-Dec-12 09:16N 46°34' E 031°09'0 0.0
2017-Dec-12 08:49N 46°34' E 031°09'0 0.0
2017-Dec-12 08:25N 46°34' E 031°09'0 0.0
2017-Dec-12 07:58N 46°34' E 031°09'0 0.0
2017-Dec-12 07:28N 46°34' E 031°09'0 0.0
2017-Dec-12 06:58N 46°34' E 031°09'0 0.0
2017-Dec-12 06:28N 46°34' E 031°09'0 0.0
2017-Dec-12 05:58N 46°34' E 031°09'0 0.0
2017-Dec-12 03:58N 46°34' E 031°09'0 0.0
2017-Dec-11 22:52N 46°34' E 031°09'0 0.0
2017-Dec-11 22:28N 46°34' E 031°09'0 0.0
2017-Dec-11 21:58N 46°34' E 031°09'0 0.0
2017-Dec-11 21:28N 46°34' E 031°09'0 0.0
2017-Dec-11 20:28N 46°34' E 031°09'0 0.0
2017-Dec-11 19:46N 46°34' E 031°09'0 0.0
2017-Dec-11 19:28N 46°34' E 031°09'0 0.0
2017-Dec-11 18:52N 46°34' E 031°09'0 0.0
2017-Dec-11 18:28N 46°34' E 031°09'0 0.0
2017-Dec-11 17:58N 46°34' E 031°09'0 0.0
2017-Dec-11 17:28N 46°34' E 031°09'6 2.2
2017-Dec-11 14:48N 46°34' E 031°00'1 0.0
2017-Dec-09 21:36N 46°35' E 031°01'2 9.3
2017-Dec-09 21:24N 46°34' E 031°00'3 6.8
2017-Dec-09 21:00N 46°31' E 030°58'0 0.1
2017-Dec-09 18:38N 46°31' E 030°58'0 0.0
2017-Dec-09 18:14N 46°31' E 030°58'0 0.0
2017-Dec-09 17:53N 46°31' E 030°58'0 0.0
2017-Dec-09 17:20N 46°31' E 030°58'0 0.0
2017-Dec-09 16:50N 46°31' E 030°58'0 0.0
2017-Dec-09 16:02N 46°31' E 030°58'0 0.0
2017-Dec-09 15:44N 46°31' E 030°58'0 0.0
2017-Dec-09 14:38N 46°31' E 030°58'0 0.0
2017-Dec-09 14:20N 46°31' E 030°58'0 0.1
2017-Dec-09 12:59N 46°31' E 030°58'3 5.7
2017-Dec-09 12:30N 46°28' E 030°57'612.3
2017-Dec-09 12:00N 46°22' E 030°57'912.3
2017-Dec-09 11:15N 46°14' E 031°01'312.9
2017-Dec-09 10:59N 46°11' E 031°05'9212.5
2017-Dec-09 03:40N 44°40' E 030°52'213.0
2017-Dec-09 03:30N 44°38' E 030°51'  
Track history (hours):
 
Tides and Currents Weather Stations Pressure Air Temp Water Temp Dewpoint Dewpoint Depression Visibility Wind Speed Wind Dir Waves Ship Positions

Ince Beylerbeyi

Last reported at 2017-Dec-15 13:12 UTC. Time now 2017-Dec-15 16:06 UTC.
Position N 40°44' E 029°28'.

Length 199 m; draft 12 m.

Type: Cargo ship. MMSI: 271042993.

Date/timePositionNaut miles runAvg speedWind from/ knotsBaromVisibWave heightAir tempDewpointWater temp
2017-Dec-15 13:12N 40°44' E 029°28'211.2
2017-Dec-15 12:58N 40°44' E 029°24'510.4
2017-Dec-15 12:30N 40°44' E 029°18'510.9
2017-Dec-15 12:00N 40°45' E 029°11'611.4
2017-Dec-15 11:30N 40°47' E 029°04'611.0
2017-Dec-15 11:00N 40°51' E 028°58'510.1
2017-Dec-15 10:29N 40°56' E 028°57'339 8.7
2017-Dec-13 19:17N 46°24' E 030°55'311.3
2017-Dec-13 19:00N 46°27' E 030°55'12 4.0
2017-Dec-13 16:05N 46°34' E 031°09'0 0.0
2017-Dec-13 15:58N 46°34' E 031°09'0 0.0
2017-Dec-13 15:20N 46°34' E 031°09'0 0.1
2017-Dec-13 14:59N 46°34' E 031°09'0 0.0
2017-Dec-13 14:29N 46°34' E 031°09'0 0.0
2017-Dec-13 12:16N 46°34' E 031°09'0 0.0
2017-Dec-13 11:56N 46°34' E 031°09'0 0.0
2017-Dec-13 11:29N 46°34' E 031°09'0 0.0
2017-Dec-13 10:58N 46°34' E 031°09'0 0.0
2017-Dec-13 10:28N 46°34' E 031°09'0 0.0
2017-Dec-13 09:43N 46°34' E 031°09'0 0.0
2017-Dec-13 09:20N 46°34' E 031°09'0 0.0
2017-Dec-13 08:59N 46°34' E 031°09'0 0.0
2017-Dec-13 07:56N 46°34' E 031°09'0 0.0
2017-Dec-13 07:17N 46°34' E 031°09'0 0.0
2017-Dec-13 06:49N 46°34' E 031°09'0 0.0
2017-Dec-13 06:19N 46°34' E 031°09'0 0.0
2017-Dec-13 05:58N 46°34' E 031°09'0 0.0
2017-Dec-13 04:43N 46°34' E 031°09'0 0.0
2017-Dec-13 04:28N 46°34' E 031°09'0 0.0
2017-Dec-13 03:56N 46°34' E 031°09'0 0.0
2017-Dec-13 01:14N 46°34' E 031°09'0 0.0
2017-Dec-13 00:58N 46°34' E 031°09'0 0.0
2017-Dec-13 00:28N 46°34' E 031°09'0 0.1
2017-Dec-12 23:55N 46°34' E 031°09'0 0.0
2017-Dec-12 22:28N 46°34' E 031°09'0 0.0
2017-Dec-12 20:55N 46°34' E 031°09'0 0.0
2017-Dec-12 15:10N 46°34' E 031°09'0 0.0
2017-Dec-12 14:58N 46°34' E 031°09'0 0.0
2017-Dec-12 13:38N 46°34' E 031°09'0 0.1
2017-Dec-12 13:19N 46°34' E 031°09'0 0.0
2017-Dec-12 11:58N 46°34' E 031°09'0 0.0
2017-Dec-12 11:28N 46°34' E 031°09'0 0.0
2017-Dec-12 09:16N 46°34' E 031°09'0 0.0
2017-Dec-12 08:49N 46°34' E 031°09'0 0.0
2017-Dec-12 08:25N 46°34' E 031°09'0 0.0
2017-Dec-12 07:58N 46°34' E 031°09'0 0.0
2017-Dec-12 07:28N 46°34' E 031°09'0 0.0
2017-Dec-12 06:58N 46°34' E 031°09'0 0.0
2017-Dec-12 06:28N 46°34' E 031°09'0 0.0
2017-Dec-12 05:58N 46°34' E 031°09'0 0.0
2017-Dec-12 03:58N 46°34' E 031°09'0 0.0
2017-Dec-11 22:52N 46°34' E 031°09'0 0.0
2017-Dec-11 22:28N 46°34' E 031°09'0 0.0
2017-Dec-11 21:58N 46°34' E 031°09'0 0.0
2017-Dec-11 21:28N 46°34' E 031°09'0 0.0
2017-Dec-11 20:28N 46°34' E 031°09'0 0.0
2017-Dec-11 19:46N 46°34' E 031°09'0 0.0
2017-Dec-11 19:28N 46°34' E 031°09'0 0.0
2017-Dec-11 18:52N 46°34' E 031°09'0 0.0
2017-Dec-11 18:28N 46°34' E 031°09'0 0.0
2017-Dec-11 17:58N 46°34' E 031°09'0 0.0
2017-Dec-11 17:28N 46°34' E 031°09'6 2.2
2017-Dec-11 14:48N 46°34' E 031°00'1 0.0
2017-Dec-09 21:36N 46°35' E 031°01'2 9.3
2017-Dec-09 21:24N 46°34' E 031°00'3 6.8
2017-Dec-09 21:00N 46°31' E 030°58'0 0.1
2017-Dec-09 18:38N 46°31' E 030°58'0 0.0
2017-Dec-09 18:14N 46°31' E 030°58'0 0.0
2017-Dec-09 17:53N 46°31' E 030°58'0 0.0
2017-Dec-09 17:20N 46°31' E 030°58'0 0.0
2017-Dec-09 16:50N 46°31' E 030°58'0 0.0
2017-Dec-09 16:02N 46°31' E 030°58'0 0.0
2017-Dec-09 15:44N 46°31' E 030°58'0 0.0
2017-Dec-09 14:38N 46°31' E 030°58'0 0.0
2017-Dec-09 14:20N 46°31' E 030°58'0 0.1
2017-Dec-09 12:59N 46°31' E 030°58'3 5.7
2017-Dec-09 12:30N 46°28' E 030°57'612.3
2017-Dec-09 12:00N 46°22' E 030°57'912.3
2017-Dec-09 11:15N 46°14' E 031°01'312.9
2017-Dec-09 10:59N 46°11' E 031°05'9212.5
2017-Dec-09 03:40N 44°40' E 030°52'213.0
2017-Dec-09 03:30N 44°38' E 030°51'  

Dump ship's entire track history